Time;durP1;ratioP1;P1;durP2;ratioP2;P2;SDS_P1;SDS_P2;PMS_P1;PMS_P2;Temp;Humidity;BMP_temperature;BMP_pressure;BME280_temperature;BME280_humidity;BME280_pressure;Samples;Min_cycle;Max_cycle;Signal;HPM_P1;HPM_P2
2022/12/10 00:02:04;;;;;;;32.53;17.77;;;;;;;0.43;100.00;99438.69;4995598;28;20075;-70
2022/12/10 00:04:31;;;;;;;34.40;19.23;;;;;;;0.43;100.00;99438.69;4999952;28;20463;-70
2022/12/10 00:06:58;;;;;;;33.30;18.88;;;;;;;0.44;100.00;99444.75;5002083;28;20395;-70
2022/12/10 00:09:24;;;;;;;38.20;19.15;;;;;;;0.46;100.00;99443.84;4989104;28;20129;-70
2022/12/10 00:11:51;;;;;;;33.50;18.80;;;;;;;0.48;100.00;99451.59;4994412;28;20046;-71
2022/12/10 00:14:17;;;;;;;34.53;19.13;;;;;;;0.45;100.00;99446.47;4995173;28;20049;-70
2022/12/10 00:16:44;;;;;;;33.90;18.92;;;;;;;0.46;100.00;99449.03;4998062;28;20470;-70
2022/12/10 00:19:11;;;;;;;33.00;18.52;;;;;;;0.45;100.00;99444.72;4995945;28;20489;-70
2022/12/10 00:21:37;;;;;;;34.75;19.35;;;;;;;0.46;100.00;99453.41;4997847;28;20056;-70
2022/12/10 00:24:05;;;;;;;35.83;18.88;;;;;;;0.43;100.00;99443.03;4998772;28;20053;-69
2022/12/10 00:26:35;;;;;;;33.40;18.52;;;;;;;0.34;100.00;99423.25;4996294;28;20034;-70
2022/12/10 00:29:04;;;;;;;31.67;17.38;;;;;;;0.47;100.00;99449.91;5003820;28;20046;-70
2022/12/10 00:31:33;;;;;;;32.90;18.77;;;;;;;0.52;100.00;99453.25;5003145;28;20482;-69
2022/12/10 00:34:03;;;;;;;33.13;18.77;;;;;;;0.48;100.00;99448.97;4994771;28;20594;-70
2022/12/10 00:36:32;;;;;;;31.65;18.75;;;;;;;0.49;100.00;99453.31;4994073;28;20049;-70
2022/12/10 00:39:00;;;;;;;33.85;18.40;;;;;;;0.48;100.00;99451.59;5002266;28;20076;-68
2022/12/10 00:41:26;;;;;;;33.05;17.95;;;;;;;0.46;100.00;99443.84;5000371;28;20488;-68
2022/12/10 00:43:55;;;;;;;31.95;17.95;;;;;;;0.52;100.00;99450.66;4988086;28;20053;-68
2022/12/10 00:46:22;;;;;;;32.25;17.55;;;;;;;0.51;100.00;99449.78;4999451;28;20140;-69
2022/12/10 00:48:49;;;;;;;31.98;17.50;;;;;;;0.48;100.00;99446.38;5000380;28;20060;-68
2022/12/10 00:51:18;;;;;;;31.17;17.40;;;;;;;0.45;100.00;99452.53;5001479;28;20056;-68
2022/12/10 00:53:47;;;;;;;31.93;17.27;;;;;;;0.48;100.00;99444.63;4998012;28;20052;-71
2022/12/10 00:56:17;;;;;;;26.38;16.08;;;;;;;0.41;100.00;99450.03;4997569;28;20504;-69
2022/12/10 00:58:44;;;;;;;31.08;17.33;;;;;;;0.43;100.00;99448.25;5006971;28;20417;-69
2022/12/10 01:01:19;;;;;;;31.98;17.15;;;;;;;0.27;100.00;99416.47;4992592;28;20546;-69
2022/12/10 01:03:47;;;;;;;30.15;16.35;;;;;;;0.46;100.00;99448.19;4992442;28;20054;-69
2022/12/10 01:06:18;;;;;;;29.58;16.63;;;;;;;0.45;100.00;99451.69;5001630;28;20461;-69
2022/12/10 01:08:45;;;;;;;30.33;17.20;;;;;;;0.32;100.00;99436.28;5003817;28;20065;-69
2022/12/10 01:11:16;;;;;;;29.50;15.70;;;;;;;0.41;100.00;99450.03;5002742;28;20517;-69
2022/12/10 01:13:43;;;;;;;;;;;;;;;0.38;100.00;99450.06;4991379;28;20136;-69
2022/12/10 01:16:12;;;;;;;29.92;14.90;;;;;;;0.40;100.00;99453.50;5006236;28;20020;-68
2022/12/10 01:18:39;;;;;;;25.55;15.02;;;;;;;0.40;100.00;99453.50;5004800;28;20060;-69
2022/12/10 01:21:09;;;;;;;31.33;16.52;;;;;;;0.37;100.00;99459.63;5002070;28;20157;-68
2022/12/10 01:23:37;;;;;;;19.65;11.70;;;;;;;0.21;100.00;99433.06;4992145;28;20047;-70
2022/12/10 01:26:08;;;;;;;30.85;17.10;;;;;;;0.34;100.00;99464.91;4997895;28;20054;-68
2022/12/10 01:28:36;;;;;;;29.80;16.30;;;;;;;0.25;100.00;99450.34;5002955;28;20112;-70
2022/12/10 01:31:25;;;;;;;30.02;16.58;;;;;;;0.32;100.00;99469.28;5001853;28;20044;-69
2022/12/10 01:33:52;;;;;;;28.80;16.50;;;;;;;0.28;100.00;99465.03;4993084;28;20465;-69
2022/12/10 01:36:22;;;;;;;27.88;16.25;;;;;;;0.14;100.00;99456.66;5002471;28;20081;-69
2022/12/10 01:38:49;;;;;;;29.00;16.80;;;;;;;0.25;100.00;99480.72;5004363;28;20070;-69
2022/12/10 01:41:31;;;;;;;29.10;16.10;;;;;;;0.26;100.00;99485.91;5003458;28;20084;-69
2022/12/10 01:44:10;;;;;;;29.80;16.85;;;;;;;0.23;100.00;99483.34;4994238;28;20052;-68
2022/12/10 01:46:39;;;;;;;27.95;15.90;;;;;;;0.27;100.00;99482.41;5002682;28;20068;-69
2022/12/10 01:49:11;;;;;;;28.30;15.55;;;;;;;0.23;100.00;99498.97;5001057;28;20058;-68
2022/12/10 01:51:40;;;;;;;27.88;15.35;;;;;;;-0.01;100.00;99469.09;4996449;28;20487;-69
2022/12/10 01:54:12;;;;;;;26.77;15.43;;;;;;;0.11;100.00;99493.16;4992388;28;20073;-68
2022/12/10 01:56:43;;;;;;;27.25;15.85;;;;;;;0.05;100.00;99493.25;4999952;28;20135;-69
2022/12/10 01:59:13;;;;;;;29.17;16.27;;;;;;;0.06;100.00;99497.59;5004749;28;20125;-68
2022/12/10 02:01:53;;;;;;;29.67;16.02;;;;;;;-0.01;100.00;99499.47;5002124;28;20068;-69
2022/12/10 02:05:01;;;;;;;28.08;15.65;;;;;;;-0.05;100.00;99503.84;5003328;28;20216;-71
2022/12/10 02:07:30;;;;;;;27.35;15.75;;;;;;;-0.03;100.00;99507.28;4995986;28;20060;-69
2022/12/10 02:10:25;;;;;;;28.50;16.60;;;;;;;0.03;100.00;99506.28;5010533;28;20077;-69
2022/12/10 02:13:08;;;;;;;27.90;15.98;;;;;;;-0.03;100.00;99496.88;5001094;28;20085;-68
2022/12/10 02:15:42;;;;;;;27.73;17.02;;;;;;;-0.17;100.00;99472.00;5009734;28;20049;-70
2022/12/10 02:18:26;;;;;;;27.00;15.35;;;;;;;-0.25;100.00;99469.53;5008012;28;20049;-70
2022/12/10 02:20:58;;;;;;;27.83;15.88;;;;;;;-0.15;100.00;99491.88;5008970;28;20129;-70
2022/12/10 02:23:54;;;;;;;28.83;15.57;;;;;;;-0.22;100.00;99487.69;5002535;28;20064;-70
2022/12/10 02:26:32;;;;;;;27.45;15.63;;;;;;;-0.26;100.00;99478.22;5001375;28;20247;-69
2022/12/10 02:29:17;;;;;;;26.90;15.02;;;;;;;-0.28;100.00;99487.78;5007600;28;20407;-70
2022/12/10 02:32:02;;;;;;;25.27;14.82;;;;;;;-0.28;100.00;99481.72;5000784;28;20064;-70
2022/12/10 02:34:34;;;;;;;26.95;15.38;;;;;;;-0.24;100.00;99486.00;5000397;28;20431;-70
2022/12/10 02:37:12;;;;;;;27.00;14.60;;;;;;;-0.26;100.00;99485.16;5006778;28;20066;-70
2022/12/10 02:39:44;;;;;;;28.60;15.55;;;;;;;-0.30;100.00;99471.34;5013967;28;20042;-70
2022/12/10 02:42:12;;;;;;;26.35;14.90;;;;;;;-0.25;100.00;99479.06;5001411;28;20054;-70
2022/12/10 02:44:41;;;;;;;26.65;14.90;;;;;;;-0.30;100.00;99479.13;4995408;28;20046;-70
2022/12/10 02:47:10;;;;;;;28.83;14.95;;;;;;;-0.33;100.00;99491.38;5012346;28;20062;-70
2022/12/10 02:49:39;;;;;;;24.05;14.10;;;;;;;-0.42;100.00;99494.97;5011404;28;20148;-70
2022/12/10 02:52:12;;;;;;;26.33;15.02;;;;;;;-0.46;100.00;99488.09;5003732;28;20056;-70
2022/12/10 02:54:48;;;;;;;25.15;14.40;;;;;;;-0.48;100.00;99488.16;5001406;28;20057;-70
2022/12/10 02:57:22;;;;;;;23.00;14.25;;;;;;;-0.52;100.00;99496.03;4998589;28;20051;-69
2022/12/10 03:00:12;;;;;;;25.73;14.65;;;;;;;-0.56;100.00;99497.81;5003919;28;20486;-70
2022/12/10 03:02:57;;;;;;;22.88;13.65;;;;;;;-0.57;100.00;99498.69;5003704;28;20165;-70
2022/12/10 03:05:29;;;;;;;23.17;14.25;;;;;;;-0.59;100.00;99489.19;4994938;28;20109;-70
2022/12/10 03:08:05;;;;;;;24.85;13.95;;;;;;;-0.68;100.00;99486.75;5007865;28;20050;-69
2022/12/10 03:10:38;;;;;;;23.40;13.60;;;;;;;-0.63;100.00;99490.97;5011571;28;20061;-70
2022/12/10 03:13:09;;;;;;;26.80;14.15;;;;;;;-0.67;100.00;99488.47;4997231;28;20057;-69
2022/12/10 03:15:39;;;;;;;25.05;14.55;;;;;;;-0.68;100.00;99489.34;5011788;28;20517;-69
2022/12/10 03:18:10;;;;;;;24.08;14.40;;;;;;;-0.72;100.00;99488.53;5012052;28;21016;-70
2022/12/10 03:20:42;;;;;;;23.52;14.02;;;;;;;-0.69;100.00;99492.84;5013043;28;20056;-70
2022/12/10 03:23:13;;;;;;;23.35;13.98;;;;;;;-0.82;100.00;99464.44;5000668;28;20905;-69
2022/12/10 03:25:40;;;;;;;25.85;14.38;;;;;;;-0.69;100.00;99488.50;5013105;28;20553;-70
2022/12/10 03:28:08;;;;;;;23.88;13.85;;;;;;;-0.68;100.00;99490.22;5002459;28;20056;-69
2022/12/10 03:30:36;;;;;;;24.77;14.77;;;;;;;-0.86;100.00;99454.09;5000962;28;20133;-69
2022/12/10 03:33:04;;;;;;;26.13;14.27;;;;;;;-0.78;100.00;99473.88;4998304;28;20050;-70
2022/12/10 03:35:32;;;;;;;24.67;14.18;;;;;;;-0.82;100.00;99471.38;5004716;28;20058;-69
2022/12/10 03:37:59;;;;;;;25.13;14.52;;;;;;;-0.79;100.00;99473.94;5009649;28;20165;-70
2022/12/10 03:40:26;;;;;;;26.33;14.00;;;;;;;-0.80;100.00;99473.06;5008706;28;20050;-70
2022/12/10 03:42:52;;;;;;;27.77;14.63;;;;;;;-0.81;100.00;99470.50;4992190;28;20050;-69
2022/12/10 03:45:19;;;;;;;27.33;14.45;;;;;;;-0.83;100.00;99475.72;4998172;28;20068;-69
2022/12/10 03:47:46;;;;;;;24.45;14.18;;;;;;;-0.85;100.00;99476.63;5006742;28;20085;-70
2022/12/10 03:50:13;;;;;;;24.83;13.73;;;;;;;-0.83;100.00;99469.66;5007669;28;20077;-70
2022/12/10 03:52:39;;;;;;;27.02;14.93;;;;;;;-0.83;100.00;99475.72;4997216;28;20715;-70
2022/12/10 03:55:06;;;;;;;25.98;14.48;;;;;;;-0.77;100.00;99469.53;4999049;28;20052;-69
2022/12/10 03:57:33;;;;;;;24.95;14.88;;;;;;;-0.78;100.00;99467.81;4997553;28;20498;-69
2022/12/10 04:00:00;;;;;;;25.75;14.90;;;;;;;-0.86;100.00;99464.50;5008694;28;20141;-69
2022/12/10 04:02:26;;;;;;;25.05;14.77;;;;;;;-0.82;100.00;99477.44;5006655;28;20136;-69
2022/12/10 04:04:53;;;;;;;25.40;14.95;;;;;;;-0.87;100.00;99475.78;4998501;28;20050;-71
2022/12/10 04:07:19;;;;;;;27.40;15.60;;;;;;;-0.89;100.00;99474.94;5006434;28;20217;-69
2022/12/10 04:09:46;;;;;;;27.33;15.18;;;;;;;-0.91;100.00;99484.50;5019389;28;20088;-69
2022/12/10 04:12:12;;;;;;;27.08;14.80;;;;;;;-0.98;100.00;99485.50;4999854;28;20037;-70
2022/12/10 04:17:24;;;;;;;25.95;14.40;;;;;;;-0.99;100.00;99491.56;5007069;28;20058;-70
2022/12/10 04:19:51;;;;;;;27.95;15.50;;;;;;;-1.01;100.00;99489.00;5006546;28;20050;-69
2022/12/10 04:27:48;;;;;;;27.13;16.27;;;;;;;-0.97;100.00;99488.06;5003749;28;20052;-69
2022/12/10 04:30:15;;;;;;;25.90;15.00;;;;;;;-0.98;100.00;99488.09;5007434;28;20077;-69
2022/12/10 04:32:41;;;;;;;28.52;14.85;;;;;;;-0.96;100.00;99487.19;5000513;28;20432;-69
2022/12/10 04:35:08;;;;;;;26.63;14.93;;;;;;;-1.09;100.00;99465.69;4989463;28;20149;-70
2022/12/10 04:37:35;;;;;;;25.98;14.75;;;;;;;-0.89;100.00;99490.53;5001221;28;20471;-68
2022/12/10 04:40:02;;;;;;;24.65;13.90;;;;;;;-0.87;100.00;99499.16;5004086;28;20046;-69
2022/12/10 04:42:29;;;;;;;27.33;15.55;;;;;;;-0.85;100.00;99500.00;4995725;28;20058;-69
2022/12/10 04:44:55;;;;;;;26.60;15.27;;;;;;;-1.02;100.00;99463.03;4997635;28;20046;-69
2022/12/10 04:47:22;;;;;;;25.90;15.30;;;;;;;-0.91;100.00;99484.50;5006896;28;20791;-70
2022/12/10 04:49:49;;;;;;;28.42;15.20;;;;;;;-0.90;100.00;99496.59;5004411;28;20126;-69
2022/12/10 04:52:16;;;;;;;27.95;15.02;;;;;;;-0.99;100.00;99465.56;5002597;28;20074;-69
2022/12/10 04:54:43;;;;;;;26.58;15.18;;;;;;;-0.84;100.00;99488.72;4997764;28;20058;-69
2022/12/10 04:57:11;;;;;;;24.73;14.55;;;;;;;-0.85;100.00;99485.28;5003224;28;20053;-69
2022/12/10 04:59:39;;;;;;;28.10;15.15;;;;;;;-0.86;100.00;99480.97;5006738;28;20049;-69
2022/12/10 05:02:06;;;;;;;25.83;14.82;;;;;;;-0.81;100.00;99483.50;5007363;28;20071;-70
2022/12/10 05:04:33;;;;;;;26.98;15.95;;;;;;;-0.82;100.00;99492.16;4990512;28;20073;-69
2022/12/10 05:07:00;;;;;;;26.30;14.57;;;;;;;-0.88;100.00;99487.06;5004908;28;20052;-69
2022/12/10 05:09:27;;;;;;;26.27;15.25;;;;;;;-0.81;100.00;99493.88;5007491;28;20426;-69
2022/12/10 05:11:53;;;;;;;26.90;15.82;;;;;;;-0.88;100.00;99484.47;5005450;28;20435;-69
2022/12/10 05:14:20;;;;;;;26.40;15.38;;;;;;;-0.86;100.00;99490.50;4996683;28;20432;-69
2022/12/10 05:16:50;;;;;;;27.88;15.45;;;;;;;-0.87;100.00;99506.97;5011653;28;20084;-69
2022/12/10 05:19:19;;;;;;;24.15;14.60;;;;;;;-0.91;100.00;99503.56;5004380;28;20048;-70
2022/12/10 05:24:31;;;;;;;28.00;16.33;;;;;;;-1.25;100.00;99474.59;4992783;28;20358;-69
2022/12/10 05:26:58;;;;;;;28.83;16.42;;;;;;;-1.12;100.00;99503.88;5002629;28;20137;-69
2022/12/10 05:29:25;;;;;;;31.50;16.45;;;;;;;-1.29;100.00;99480.72;5010343;28;20112;-69
2022/12/10 05:31:51;;;;;;;26.88;15.57;;;;;;;-1.17;100.00;99498.75;4997424;28;20646;-68
2022/12/10 05:34:18;;;;;;;31.30;16.58;;;;;;;-1.34;100.00;99474.72;4997230;28;20712;-70
2022/12/10 05:36:44;;;;;;;27.90;16.02;;;;;;;-1.29;100.00;99491.13;4999387;28;20109;-69
2022/12/10 05:39:11;;;;;;;28.83;15.90;;;;;;;-1.16;100.00;99505.66;5010736;28;20053;-69
2022/12/10 05:41:39;;;;;;;27.60;15.63;;;;;;;-1.16;100.00;99512.59;5006699;28;20515;-68
2022/12/10 05:44:07;;;;;;;30.05;16.02;;;;;;;-1.13;100.00;99508.22;4993462;28;20050;-69
2022/12/10 05:46:35;;;;;;;26.25;15.25;;;;;;;-1.04;100.00;99516.75;5006833;28;20133;-69
2022/12/10 05:49:03;;;;;;;28.95;16.50;;;;;;;-1.03;100.00;99519.31;5002322;28;20045;-68
2022/12/10 05:51:32;;;;;;;31.77;16.02;;;;;;;-1.11;100.00;99505.59;5001682;28;20046;-71
2022/12/10 05:54:01;;;;;;;29.95;15.90;;;;;;;-1.03;100.00;99523.66;5001133;28;20050;-69
2022/12/10 05:56:28;;;;;;;29.10;16.13;;;;;;;-1.00;100.00;99518.44;4995963;28;20152;-69
2022/12/10 05:58:58;;;;;;;27.70;16.00;;;;;;;-0.97;100.00;99519.25;4995392;28;20124;-69
2022/12/10 06:01:28;;;;;;;27.35;15.38;;;;;;;-0.90;100.00;99520.84;5002115;28;20104;-68
2022/12/10 06:03:56;;;;;;;27.63;15.55;;;;;;;-0.86;100.00;99524.28;4999904;28;20132;-71
2022/12/10 06:06:24;;;;;;;28.33;16.52;;;;;;;-0.86;100.00;99524.28;4997675;28;20133;-69
2022/12/10 06:08:51;;;;;;;30.40;16.33;;;;;;;-0.86;100.00;99525.13;5001137;28;20047;-69
2022/12/10 06:11:18;;;;;;;27.73;16.58;;;;;;;-0.83;100.00;99521.66;4999127;28;20050;-69
2022/12/10 06:13:45;;;;;;;27.83;15.98;;;;;;;-0.98;100.00;99495.88;4993421;28;20089;-71
2022/12/10 06:16:17;;;;;;;29.10;15.55;;;;;;;-0.84;100.00;99528.59;4998819;28;20046;-70
2022/12/10 06:18:44;;;;;;;27.95;15.95;;;;;;;-0.77;100.00;99534.53;5000232;28;20041;-69
2022/12/10 06:21:13;;;;;;;28.10;15.70;;;;;;;-0.66;100.00;99537.00;5006874;28;20074;-69
2022/12/10 06:23:41;;;;;;;25.08;14.68;;;;;;;-0.59;100.00;99531.66;5006864;28;20070;-69
2022/12/10 06:26:13;;;;;;;27.90;15.52;;;;;;;-0.60;100.00;99524.72;4999491;28;20057;-69
2022/12/10 06:28:41;;;;;;;27.50;16.50;;;;;;;-0.49;100.00;99537.59;5008382;28;20125;-69
2022/12/10 06:31:08;;;;;;;26.92;15.40;;;;;;;-0.50;100.00;99536.72;5003911;28;20044;-69
2022/12/10 06:33:34;;;;;;;27.00;15.88;;;;;;;-0.47;100.00;99543.59;5002952;28;20055;-69
2022/12/10 06:36:04;;;;;;;29.92;17.58;;;;;;;-0.46;100.00;99540.97;4995867;28;20391;-71
2022/12/10 06:38:32;;;;;;;25.55;16.25;;;;;;;-0.56;100.00;99522.94;5006607;28;20060;-71
2022/12/10 06:40:58;;;;;;;26.48;15.27;;;;;;;-0.36;100.00;99552.09;5007407;28;20041;-69
2022/12/10 06:43:29;;;;;;;26.85;15.10;;;;;;;-0.42;100.00;99540.03;5000011;28;20076;-69
2022/12/10 06:45:56;;;;;;;28.00;16.10;;;;;;;-0.24;100.00;99562.31;4992988;28;20049;-70
2022/12/10 06:48:23;;;;;;;28.30;16.67;;;;;;;-0.18;100.00;99563.94;5004558;28;20395;-70
2022/12/10 06:50:49;;;;;;;27.02;16.08;;;;;;;-0.15;100.00;99561.28;5005042;28;20668;-70
2022/12/10 06:53:16;;;;;;;25.10;15.48;;;;;;;-0.17;100.00;99568.28;5001688;28;20080;-70
2022/12/10 06:55:42;;;;;;;27.15;16.08;;;;;;;-0.18;100.00;99571.75;5014450;28;20046;-70
2022/12/10 06:58:09;;;;;;;27.27;16.20;;;;;;;-0.18;100.00;99564.81;5003423;28;20121;-70
2022/12/10 07:00:35;;;;;;;25.52;15.75;;;;;;;-0.14;100.00;99566.44;4996051;28;20080;-70
2022/12/10 07:03:02;;;;;;;28.30;15.60;;;;;;;-0.13;100.00;99569.91;4998609;28;20081;-70
2022/12/10 07:05:28;;;;;;;27.85;15.88;;;;;;;-0.10;100.00;99572.47;4991024;28;20129;-70
2022/12/10 07:07:55;;;;;;;26.30;15.70;;;;;;;-0.01;100.00;99582.75;5003420;28;20044;-70
2022/12/10 07:10:22;;;;;;;28.45;16.48;;;;;;;-0.07;100.00;99562.00;5004417;28;20050;-69
2022/12/10 07:12:48;;;;;;;27.80;16.13;;;;;;;0.12;100.00;99581.63;4995664;28;20052;-69
2022/12/10 07:15:15;;;;;;;24.98;15.18;;;;;;;0.14;100.00;99581.63;4992413;28;20135;-69
2022/12/10 07:17:42;;;;;;;28.73;15.63;;;;;;;0.23;100.00;99584.03;5001553;28;20054;-69
2022/12/10 07:20:09;;;;;;;27.48;15.15;;;;;;;0.28;100.00;99588.28;5004805;28;20048;-70
2022/12/10 07:22:36;;;;;;;31.35;16.00;;;;;;;0.27;100.00;99594.38;5005059;28;20050;-68
2022/12/10 07:25:03;;;;;;;28.10;15.30;;;;;;;0.17;100.00;99577.19;5007373;28;20061;-69
2022/12/10 07:27:31;;;;;;;26.83;15.88;;;;;;;0.27;100.00;99601.34;5003732;28;20108;-71
2022/12/10 07:29:57;;;;;;;25.10;15.15;;;;;;;0.27;100.00;99593.53;5009087;28;20112;-69
2022/12/10 07:32:26;;;;;;;26.38;15.30;;;;;;;0.25;100.00;99590.09;5002627;28;20046;-69
2022/12/10 07:34:52;;;;;;;28.45;15.25;;;;;;;0.28;100.00;99606.50;4993819;28;20133;-69
2022/12/10 07:37:19;;;;;;;27.70;15.48;;;;;;;0.31;100.00;99605.59;5005355;28;20492;-69
2022/12/10 07:39:45;;;;;;;25.98;15.25;;;;;;;0.29;100.00;99607.38;5005768;28;20048;-69
2022/12/10 07:42:12;;;;;;;26.75;15.77;;;;;;;0.31;100.00;99616.88;5001308;28;20492;-69
2022/12/10 07:44:38;;;;;;;27.08;16.20;;;;;;;0.18;100.00;99586.72;5001039;28;20050;-70
2022/12/10 07:47:05;;;;;;;28.80;16.85;;;;;;;0.32;100.00;99610.75;5001850;28;20077;-69
2022/12/10 07:49:31;;;;;;;26.35;15.40;;;;;;;0.34;100.00;99603.78;5004797;28;20053;-69
2022/12/10 07:51:58;;;;;;;28.10;15.40;;;;;;;0.41;100.00;99611.50;5007683;28;20128;-70
2022/12/10 07:54:25;;;;;;;26.50;15.23;;;;;;;0.42;100.00;99608.00;4996612;28;20050;-69
2022/12/10 07:56:51;;;;;;;25.13;15.30;;;;;;;0.40;100.00;99594.16;4993408;28;20050;-69
2022/12/10 07:59:18;;;;;;;24.27;14.88;;;;;;;0.53;100.00;99613.88;5008485;28;20071;-69
2022/12/10 08:01:44;;;;;;;24.98;15.77;;;;;;;0.59;100.00;99618.97;5003028;28;20136;-69
2022/12/10 08:04:11;;;;;;;27.55;16.67;;;;;;;0.63;100.00;99623.25;5002743;28;20136;-69
2022/12/10 08:06:37;;;;;;;25.35;14.90;;;;;;;0.68;100.00;99618.78;5002390;28;20045;-70
2022/12/10 08:09:04;;;;;;;26.20;15.13;;;;;;;0.54;100.00;99595.59;5003518;28;20069;-69
2022/12/10 08:11:30;;;;;;;23.92;14.75;;;;;;;0.78;100.00;99616.88;5000273;28;20057;-69
2022/12/10 08:13:59;;;;;;;22.23;13.68;;;;;;;0.88;100.00;99613.19;5008698;28;20063;-69
2022/12/10 08:16:28;;;;;;;24.00;14.60;;;;;;;1.26;100.00;99626.25;4988418;28;20065;-70
2022/12/10 08:18:57;;;;;;;26.77;15.38;;;;;;;1.27;100.00;99620.16;4994406;28;20045;-69
2022/12/10 08:21:26;;;;;;;26.88;15.70;;;;;;;1.18;100.00;99620.38;4997920;28;20092;-70
2022/12/10 08:23:54;;;;;;;24.95;14.48;;;;;;;1.20;100.00;99625.56;5000484;28;20447;-68
2022/12/10 08:26:24;;;;;;;26.02;15.30;;;;;;;1.13;100.00;99624.81;4989036;28;20275;-70
2022/12/10 08:28:52;;;;;;;26.15;15.00;;;;;;;1.08;100.00;99621.47;5005349;28;20108;-69
2022/12/10 08:31:21;;;;;;;26.15;15.10;;;;;;;1.05;100.00;99627.59;4990788;28;20169;-69
2022/12/10 08:33:48;;;;;;;25.60;15.85;;;;;;;0.91;100.00;99602.69;4996278;28;20520;-71
2022/12/10 08:36:17;;;;;;;26.30;15.93;;;;;;;0.93;100.00;99608.75;4991743;28;20065;-69
2022/12/10 08:38:44;;;;;;;27.20;15.18;;;;;;;1.14;100.00;99641.31;5000863;28;20105;-69
2022/12/10 08:41:17;;;;;;;25.17;16.20;;;;;;;1.15;100.00;99637.81;5000977;28;20548;-70
2022/12/10 08:43:44;;;;;;;25.73;15.63;;;;;;;1.09;100.00;99619.72;4997540;28;20096;-70
2022/12/10 08:46:12;;;;;;;24.60;15.18;;;;;;;1.25;100.00;99640.22;4988230;28;20053;-71
2022/12/10 08:48:39;;;;;;;26.75;15.80;;;;;;;1.23;100.00;99633.31;4997143;28;20070;-70
2022/12/10 08:51:07;;;;;;;25.65;16.10;;;;;;;1.20;100.00;99639.44;4992876;28;20046;-70
2022/12/10 08:53:34;;;;;;;26.17;15.60;;;;;;;1.27;100.00;99653.19;5000950;28;20052;-70
2022/12/10 08:56:01;;;;;;;25.40;14.95;;;;;;;1.28;100.00;99647.94;4990639;28;20225;-70
2022/12/10 08:58:28;;;;;;;25.73;15.93;;;;;;;1.34;100.00;99660.03;5002848;28;20058;-70
2022/12/10 09:00:55;;;;;;;25.02;16.35;;;;;;;1.36;100.00;99653.88;4993552;28;20041;-69
2022/12/10 09:03:22;;;;;;;26.00;15.98;;;;;;;1.35;100.00;99651.31;5000585;28;20046;-69
2022/12/10 09:05:48;;;;;;;26.73;15.52;;;;;;;1.36;100.00;99663.47;4992540;28;20100;-69
2022/12/10 09:08:15;;;;;;;24.20;14.90;;;;;;;1.36;100.00;99648.66;5003937;28;20046;-70
2022/12/10 09:10:42;;;;;;;23.75;15.30;;;;;;;1.40;100.00;99655.53;4999993;28;20426;-69
2022/12/10 09:13:08;;;;;;;26.33;15.68;;;;;;;1.40;100.00;99650.31;5003211;28;20137;-70
2022/12/10 09:15:35;;;;;;;27.95;14.60;;;;;;;1.47;100.00;99656.25;4994531;28;20598;-70
2022/12/10 09:18:02;;;;;;;22.95;14.15;;;;;;;1.54;100.00;99665.66;4998158;28;20049;-70
2022/12/10 09:20:28;;;;;;;24.45;14.70;;;;;;;1.58;100.00;99669.91;5007662;28;20050;-70
2022/12/10 09:22:55;;;;;;;22.45;13.82;;;;;;;1.62;100.00;99674.16;5007947;28;20073;-70
2022/12/10 09:25:22;;;;;;;23.17;14.50;;;;;;;1.66;100.00;99675.81;4993983;28;20080;-71
2022/12/10 09:27:48;;;;;;;21.73;14.38;;;;;;;1.72;100.00;99674.84;4994904;28;20912;-70
2022/12/10 09:30:15;;;;;;;23.05;13.80;;;;;;;1.72;100.00;99665.25;5004871;28;20061;-70
2022/12/10 09:32:42;;;;;;;22.52;13.90;;;;;;;1.65;100.00;99644.53;5003944;28;20046;-69
2022/12/10 09:35:08;;;;;;;22.83;14.52;;;;;;;1.68;100.00;99641.88;4994537;28;20156;-71
2022/12/10 09:37:35;;;;;;;24.45;14.52;;;;;;;1.89;100.00;99674.47;5000272;28;20781;-70
2022/12/10 09:40:03;;;;;;;19.85;13.45;;;;;;;1.80;100.00;99643.34;5004143;28;20141;-71
2022/12/10 09:42:54;;;;;;;20.15;12.52;;;;;;;1.94;100.00;99667.34;4998169;28;20050;-70
2022/12/10 09:45:44;;;;;;;20.83;13.40;;;;;;;1.92;100.00;99671.75;4993947;28;20137;-70
2022/12/10 09:48:34;;;;;;;19.55;12.60;;;;;;;1.86;100.00;99669.31;5005171;28;20571;-69
2022/12/10 09:51:11;;;;;;;19.73;12.70;;;;;;;1.78;100.00;99656.41;4994690;28;20046;-70
2022/12/10 09:53:40;;;;;;;21.52;13.02;;;;;;;1.95;100.00;99676.91;5002168;28;20056;-70
2022/12/10 09:56:20;;;;;;;18.67;12.95;;;;;;;1.95;100.00;99669.06;4991592;28;20059;-69
2022/12/10 09:58:47;;;;;;;21.00;13.05;;;;;;;1.86;100.00;99633.63;5003317;28;20050;-70
2022/12/10 10:01:17;;;;;;;18.13;12.10;;;;;;;2.09;100.00;99673.06;5005017;28;20083;-70
2022/12/10 10:03:44;;;;;;;;;;;;;;;2.20;100.00;99665.00;5007464;28;20038;-69
2022/12/10 10:06:15;;;;;;;17.47;11.50;;;;;;;2.16;100.00;99663.34;4991587;28;19939;-70
2022/12/10 10:08:55;;;;;;;21.75;12.93;;;;;;;2.22;100.00;99665.78;5005780;28;20054;-70
2022/12/10 10:11:28;;;;;;;18.38;12.23;;;;;;;2.35;100.00;99663.75;5001572;28;20066;-70
2022/12/10 10:14:11;;;;;;;18.85;12.40;;;;;;;2.48;100.00;99670.38;5004226;28;20042;-71
2022/12/10 10:16:52;;;;;;;17.83;11.85;;;;;;;2.52;100.00;99665.94;4993385;28;20050;-71
2022/12/10 10:19:26;;;;;;;19.00;12.82;;;;;;;2.40;100.00;99667.09;5006187;28;20127;-71
2022/12/10 10:21:52;;;;;;;21.05;12.93;;;;;;;2.36;100.00;99661.06;5003918;28;20425;-71
2022/12/10 10:24:33;;;;;;;18.70;12.32;;;;;;;2.35;100.00;99664.63;5008196;28;20088;-69
2022/12/10 10:27:13;;;;;;;17.65;12.20;;;;;;;2.42;100.00;99671.38;5005208;28;20047;-69
2022/12/10 10:29:39;;;;;;;20.58;12.68;;;;;;;2.41;100.00;99666.19;5008899;28;20041;-69
2022/12/10 10:32:24;;;;;;;22.90;13.63;;;;;;;2.49;100.00;99677.31;5015125;28;20076;-69
2022/12/10 10:34:55;;;;;;;21.30;13.80;;;;;;;2.28;100.00;99647.38;5013888;28;20056;-72
2022/12/10 10:37:28;;;;;;;21.23;13.82;;;;;;;2.32;100.00;99669.91;5002983;28;20556;-71
2022/12/10 10:39:56;;;;;;;22.40;14.07;;;;;;;2.22;100.00;99668.41;5011244;28;20062;-70
2022/12/10 10:42:35;;;;;;;22.63;13.63;;;;;;;2.15;100.00;99638.13;5008905;28;20053;-71
2022/12/10 10:45:05;;;;;;;23.23;13.43;;;;;;;2.31;100.00;99660.34;5002328;28;20338;-70
2022/12/10 10:47:36;;;;;;;22.33;14.30;;;;;;;2.38;100.00;99664.50;5001603;28;20062;-70
2022/12/10 10:50:05;;;;;;;22.70;13.32;;;;;;;2.32;100.00;99654.22;4990366;28;20149;-69
2022/12/10 10:52:41;;;;;;;23.65;14.27;;;;;;;2.45;100.00;99663.47;4996408;28;20046;-69
2022/12/10 10:55:31;;;;;;;23.35;13.30;;;;;;;2.49;100.00;99664.25;5001425;28;20046;-71
2022/12/10 10:57:57;;;;;;;23.60;14.00;;;;;;;2.52;100.00;99664.16;4997165;28;20059;-69
2022/12/10 11:00:24;;;;;;;22.13;13.88;;;;;;;2.59;100.00;99665.72;5005359;28;20046;-68
2022/12/10 11:02:51;;;;;;;25.15;14.38;;;;;;;2.49;100.00;99651.19;4991154;28;20060;-70
2022/12/10 11:05:23;;;;;;;28.08;16.33;;;;;;;2.73;100.00;99662.75;5010112;28;20133;-70
2022/12/10 11:07:58;;;;;;;24.65;13.93;;;;;;;2.72;100.00;99664.50;4999987;28;20514;-68
2022/12/10 11:10:25;;;;;;;23.23;14.18;;;;;;;2.69;100.00;99661.09;5003702;28;20502;-69
2022/12/10 11:13:05;;;;;;;21.15;13.45;;;;;;;2.62;100.00;99663.03;4991337;28;20430;-68
2022/12/10 11:15:35;;;;;;;23.15;14.38;;;;;;;2.61;100.00;99666.53;4994088;28;20133;-70
2022/12/10 11:18:30;;;;;;;21.05;13.73;;;;;;;2.42;100.00;99644.38;5003894;28;20078;-71
2022/12/10 11:20:57;;;;;;;21.00;13.95;;;;;;;2.56;100.00;99678.88;4995767;28;20487;-70
2022/12/10 11:23:28;;;;;;;25.10;15.32;;;;;;;2.51;100.00;99659.84;4999869;28;20049;-69
2022/12/10 11:26:25;;;;;;;23.55;15.10;;;;;;;2.53;100.00;99667.63;4997391;28;20050;-71
2022/12/10 11:29:10;;;;;;;21.38;13.70;;;;;;;2.51;100.00;99664.22;5007754;28;20050;-71
2022/12/10 11:31:49;;;;;;;24.90;15.05;;;;;;;2.43;100.00;99657.41;5004243;28;20041;-71
2022/12/10 11:35:04;;;;;;;25.02;15.00;;;;;;;2.47;100.00;99661.69;5016867;28;20053;-69
2022/12/10 11:37:36;;;;;;;24.42;14.23;;;;;;;2.43;100.00;99660.03;4977321;28;20046;-71
2022/12/10 11:40:24;;;;;;;25.73;15.25;;;;;;;2.39;100.00;99641.84;5006201;28;20124;-71